Aeroporto :
LOGIN :

Iscrizione | Disclaimer

   EN    FR    IT 

 










Sommario :    VFR   VFR Marginale   IFR   IFR Intensivo   IFR Molto Intensivo
Visibilità : 
Base nubi : 
>= 8 km
>= 3000ft
5 / 8 km
1000 / 3000 ft
1500m / 5 km
500 / 1000 ft
800 / 1500m
200 / 500 ft
< 800m
< 200 ft
Simboli :   Temporali  Nebbia  Neve Forte  Precipitazioni Forti  Vento > 20 kt
SIGMETs :   Varie  Temporali  Ghiacco  Turbolenza  Onda orograficha  Ceneri Vulcaniche






- Altitudine del aeroporto : 93 ft
- Codice IATA : XRY


LEJR - Jerez

ULTIMO METAR :
  • 300700Z 08003KT 040V120 7000 NSC 10/10 Q1013

METARs OBSOLETI :
  • 300630Z 07004KT CAVOK 10/10 Q1013
  • 300600Z 06003KT CAVOK 09/09 Q1013
  • 300530Z 08003KT 8000 NSC 08/08 Q1013
  • 300500Z 07003KT 8000 NSC 08/08 Q1013
  • 300430Z VRB01KT 9000 NSC 09/09 Q1013

TAF TAF LEJR
Valido dal 30 a 06 ore il 31 a 06 ore UTC


300500Z 3006/3106 VRB02KT 9999 FEW015 SCT020 TX18/3014Z TN12/3006Z
PROB40
TEMPO 3006/3009 3000 BR BKN010
BECMG 3008/3010 22010KT
PROB40
TEMPO 3016/3106 4000 SHRA FEW030CB
BECMG 3019/3021 VRB02KT



MetMap, La meteo Aeronautica in un colpo d'occhio ! - Copyright ORBIFLY Dicembre 2007 - Disclaimer

ORBIFLY MET'MAP TEAM :

Programmazione e sviluppo : Alexandra Zaïnal
Concezione : Baudouin d'Aumeries
Aiuto per la programmazione : Marc-Olivier Méhu
Supporto tecnico e logistico : Manuel Goepfert
Aiuto per la traduzione : Arnaldo La Scala

Contatto : metmap@orbifly.com




FONTI E CREDITI :

   NOAA